sensor_id;sensor_type;location;lat;lon;timestamp;temperature;humidity
16174;DHT22;14031;50.158;8.626;2023-02-01T00:02:17;7.10;99.90
16174;DHT22;14031;50.158;8.626;2023-02-01T00:04:44;7.10;99.90
16174;DHT22;14031;50.158;8.626;2023-02-01T00:07:10;7.10;99.90
16174;DHT22;14031;50.158;8.626;2023-02-01T00:09:37;7.10;99.90
16174;DHT22;14031;50.158;8.626;2023-02-01T00:12:04;7.10;99.90
16174;DHT22;14031;50.158;8.626;2023-02-01T00:14:31;7.10;99.90
16174;DHT22;14031;50.158;8.626;2023-02-01T00:17:04;7.20;99.90
16174;DHT22;14031;50.158;8.626;2023-02-01T00:19:33;7.10;99.90
16174;DHT22;14031;50.158;8.626;2023-02-01T00:22:00;7.10;99.90
16174;DHT22;14031;50.158;8.626;2023-02-01T00:24:27;7.20;99.90
16174;DHT22;14031;50.158;8.626;2023-02-01T00:26:54;7.20;99.90
16174;DHT22;14031;50.158;8.626;2023-02-01T00:29:21;7.10;99.90
16174;DHT22;14031;50.158;8.626;2023-02-01T00:31:50;7.20;99.90
16174;DHT22;14031;50.158;8.626;2023-02-01T00:34:18;7.10;99.90
16174;DHT22;14031;50.158;8.626;2023-02-01T00:36:46;7.20;99.90
16174;DHT22;14031;50.158;8.626;2023-02-01T00:39:13;7.10;99.90
16174;DHT22;14031;50.158;8.626;2023-02-01T00:41:40;7.10;99.90
16174;DHT22;14031;50.158;8.626;2023-02-01T00:44:07;7.20;99.90
16174;DHT22;14031;50.158;8.626;2023-02-01T00:46:34;7.30;99.90
16174;DHT22;14031;50.158;8.626;2023-02-01T00:49:01;7.10;99.90
16174;DHT22;14031;50.158;8.626;2023-02-01T00:51:28;7.10;99.90
16174;DHT22;14031;50.158;8.626;2023-02-01T00:53:57;7.20;99.90
16174;DHT22;14031;50.158;8.626;2023-02-01T00:56:24;7.10;99.90
16174;DHT22;14031;50.158;8.626;2023-02-01T00:58:53;7.10;99.90
16174;DHT22;14031;50.158;8.626;2023-02-01T01:01:21;7.10;99.90
16174;DHT22;14031;50.158;8.626;2023-02-01T01:03:50;7.20;99.90
16174;DHT22;14031;50.158;8.626;2023-02-01T01:06:19;7.00;99.90
16174;DHT22;14031;50.158;8.626;2023-02-01T01:08:47;7.10;99.90
16174;DHT22;14031;50.158;8.626;2023-02-01T01:11:17;7.20;99.90
16174;DHT22;14031;50.158;8.626;2023-02-01T01:13:47;7.20;99.90
16174;DHT22;14031;50.158;8.626;2023-02-01T01:16:14;7.20;99.90
16174;DHT22;14031;50.158;8.626;2023-02-01T01:18:42;7.30;99.90
16174;DHT22;14031;50.158;8.626;2023-02-01T01:21:11;7.20;99.90
16174;DHT22;14031;50.158;8.626;2023-02-01T01:23:38;7.20;99.90
16174;DHT22;14031;50.158;8.626;2023-02-01T01:26:05;7.20;99.90
16174;DHT22;14031;50.158;8.626;2023-02-01T01:28:33;7.20;99.90
16174;DHT22;14031;50.158;8.626;2023-02-01T01:31:01;7.30;99.90
16174;DHT22;14031;50.158;8.626;2023-02-01T01:33:27;7.20;99.90
16174;DHT22;14031;50.158;8.626;2023-02-01T01:35:55;7.10;99.90
16174;DHT22;14031;50.158;8.626;2023-02-01T01:38:22;7.10;99.90
16174;DHT22;14031;50.158;8.626;2023-02-01T01:40:48;7.10;99.90
16174;DHT22;14031;50.158;8.626;2023-02-01T01:43:18;7.10;99.90
16174;DHT22;14031;50.158;8.626;2023-02-01T01:45:51;7.20;99.90
16174;DHT22;14031;50.158;8.626;2023-02-01T01:48:21;7.20;99.90
16174;DHT22;14031;50.158;8.626;2023-02-01T01:50:54;7.20;99.90
16174;DHT22;14031;50.158;8.626;2023-02-01T01:53:24;7.20;99.90
16174;DHT22;14031;50.158;8.626;2023-02-01T01:55:53;7.10;99.90
16174;DHT22;14031;50.158;8.626;2023-02-01T01:58:24;7.20;99.90
16174;DHT22;14031;50.158;8.626;2023-02-01T02:00:54;7.30;99.90
16174;DHT22;14031;50.158;8.626;2023-02-01T02:03:25;7.30;99.90
16174;DHT22;14031;50.158;8.626;2023-02-01T02:05:55;7.20;99.90
16174;DHT22;14031;50.158;8.626;2023-02-01T02:08:25;7.30;99.90
16174;DHT22;14031;50.158;8.626;2023-02-01T02:10:53;7.20;99.90
16174;DHT22;14031;50.158;8.626;2023-02-01T02:13:26;7.20;99.90
16174;DHT22;14031;50.158;8.626;2023-02-01T02:16:04;7.20;99.90
16174;DHT22;14031;50.158;8.626;2023-02-01T02:18:37;7.40;99.90
16174;DHT22;14031;50.158;8.626;2023-02-01T02:21:19;7.30;99.90
16174;DHT22;14031;50.158;8.626;2023-02-01T02:24:27;7.30;99.90
16174;DHT22;14031;50.158;8.626;2023-02-01T02:27:20;7.30;99.90
16174;DHT22;14031;50.158;8.626;2023-02-01T02:33:26;7.30;99.90
16174;DHT22;14031;50.158;8.626;2023-02-01T02:36:01;7.30;99.90
16174;DHT22;14031;50.158;8.626;2023-02-01T02:38:32;7.30;99.90
16174;DHT22;14031;50.158;8.626;2023-02-01T02:41:10;7.30;99.90
16174;DHT22;14031;50.158;8.626;2023-02-01T02:44:08;7.20;99.90
16174;DHT22;14031;50.158;8.626;2023-02-01T02:46:58;7.20;99.90
16174;DHT22;14031;50.158;8.626;2023-02-01T02:49:49;7.20;99.90
16174;DHT22;14031;50.158;8.626;2023-02-01T02:52:41;7.20;99.90
16174;DHT22;14031;50.158;8.626;2023-02-01T02:55:27;7.20;99.90
16174;DHT22;14031;50.158;8.626;2023-02-01T02:57:55;7.20;99.90
16174;DHT22;14031;50.158;8.626;2023-02-01T03:00:42;7.10;99.90
16174;DHT22;14031;50.158;8.626;2023-02-01T03:03:26;7.20;99.90
16174;DHT22;14031;50.158;8.626;2023-02-01T03:06:15;7.20;99.90
16174;DHT22;14031;50.158;8.626;2023-02-01T03:08:42;7.20;99.90
16174;DHT22;14031;50.158;8.626;2023-02-01T03:11:12;7.20;99.90
16174;DHT22;14031;50.158;8.626;2023-02-01T03:13:43;7.20;99.90
16174;DHT22;14031;50.158;8.626;2023-02-01T03:16:15;7.20;99.90
16174;DHT22;14031;50.158;8.626;2023-02-01T03:18:51;7.40;99.90
16174;DHT22;14031;50.158;8.626;2023-02-01T03:21:24;7.20;99.90
16174;DHT22;14031;50.158;8.626;2023-02-01T03:23:53;7.20;99.90
16174;DHT22;14031;50.158;8.626;2023-02-01T03:26:25;7.20;99.90
16174;DHT22;14031;50.158;8.626;2023-02-01T03:28:57;7.30;99.90
16174;DHT22;14031;50.158;8.626;2023-02-01T03:31:28;7.20;99.90
16174;DHT22;14031;50.158;8.626;2023-02-01T03:33:55;7.10;99.90
16174;DHT22;14031;50.158;8.626;2023-02-01T03:36:26;7.10;99.90
16174;DHT22;14031;50.158;8.626;2023-02-01T03:39:00;7.10;99.90
16174;DHT22;14031;50.158;8.626;2023-02-01T03:41:34;7.10;99.90
16174;DHT22;14031;50.158;8.626;2023-02-01T03:44:07;7.20;99.90
16174;DHT22;14031;50.158;8.626;2023-02-01T03:46:38;7.10;99.90
16174;DHT22;14031;50.158;8.626;2023-02-01T03:49:09;7.00;99.90
16174;DHT22;14031;50.158;8.626;2023-02-01T03:51:38;7.10;99.90
16174;DHT22;14031;50.158;8.626;2023-02-01T03:54:09;7.20;99.90
16174;DHT22;14031;50.158;8.626;2023-02-01T03:56:38;7.10;99.90
16174;DHT22;14031;50.158;8.626;2023-02-01T03:59:10;7.10;99.90
16174;DHT22;14031;50.158;8.626;2023-02-01T04:01:36;7.10;99.90
16174;DHT22;14031;50.158;8.626;2023-02-01T04:04:03;7.10;99.90
16174;DHT22;14031;50.158;8.626;2023-02-01T04:06:30;7.20;99.90
16174;DHT22;14031;50.158;8.626;2023-02-01T04:08:58;7.10;99.90
16174;DHT22;14031;50.158;8.626;2023-02-01T04:11:25;7.10;99.90
16174;DHT22;14031;50.158;8.626;2023-02-01T04:13:52;7.10;99.90
16174;DHT22;14031;50.158;8.626;2023-02-01T04:16:19;7.20;99.90
16174;DHT22;14031;50.158;8.626;2023-02-01T04:18:46;7.20;99.90
16174;DHT22;14031;50.158;8.626;2023-02-01T04:21:13;7.10;99.90
16174;DHT22;14031;50.158;8.626;2023-02-01T04:23:39;7.20;99.90
16174;DHT22;14031;50.158;8.626;2023-02-01T04:26:09;7.20;99.90
16174;DHT22;14031;50.158;8.626;2023-02-01T04:28:37;7.20;99.90
16174;DHT22;14031;50.158;8.626;2023-02-01T04:31:04;7.20;99.90
16174;DHT22;14031;50.158;8.626;2023-02-01T04:33:31;7.10;99.90
16174;DHT22;14031;50.158;8.626;2023-02-01T04:35:58;7.30;99.90
16174;DHT22;14031;50.158;8.626;2023-02-01T04:38:24;7.20;99.90
16174;DHT22;14031;50.158;8.626;2023-02-01T04:40:52;7.10;99.90
16174;DHT22;14031;50.158;8.626;2023-02-01T04:43:20;7.30;99.90
16174;DHT22;14031;50.158;8.626;2023-02-01T04:45:48;7.20;99.90
16174;DHT22;14031;50.158;8.626;2023-02-01T04:48:15;7.40;99.90
16174;DHT22;14031;50.158;8.626;2023-02-01T04:50:43;7.20;99.90
16174;DHT22;14031;50.158;8.626;2023-02-01T04:53:12;7.20;99.90
16174;DHT22;14031;50.158;8.626;2023-02-01T04:55:39;7.10;99.90
16174;DHT22;14031;50.158;8.626;2023-02-01T04:58:06;7.10;99.90
16174;DHT22;14031;50.158;8.626;2023-02-01T05:00:34;7.20;99.90
16174;DHT22;14031;50.158;8.626;2023-02-01T05:03:01;7.10;99.90
16174;DHT22;14031;50.158;8.626;2023-02-01T05:05:28;7.10;99.90
16174;DHT22;14031;50.158;8.626;2023-02-01T05:07:55;7.10;99.90
16174;DHT22;14031;50.158;8.626;2023-02-01T05:10:24;7.10;99.90
16174;DHT22;14031;50.158;8.626;2023-02-01T05:12:51;7.10;99.90
16174;DHT22;14031;50.158;8.626;2023-02-01T05:15:37;7.30;99.90
16174;DHT22;14031;50.158;8.626;2023-02-01T05:18:06;7.10;99.90
16174;DHT22;14031;50.158;8.626;2023-02-01T05:20:38;7.00;99.90
16174;DHT22;14031;50.158;8.626;2023-02-01T05:23:05;7.10;99.90
16174;DHT22;14031;50.158;8.626;2023-02-01T05:25:31;7.00;99.90
16174;DHT22;14031;50.158;8.626;2023-02-01T05:27:58;7.20;99.90
16174;DHT22;14031;50.158;8.626;2023-02-01T05:30:25;7.20;99.90
16174;DHT22;14031;50.158;8.626;2023-02-01T05:32:53;7.10;99.90
16174;DHT22;14031;50.158;8.626;2023-02-01T05:35:20;7.10;99.90
16174;DHT22;14031;50.158;8.626;2023-02-01T05:37:47;7.00;99.90
16174;DHT22;14031;50.158;8.626;2023-02-01T05:40:14;7.20;99.90
16174;DHT22;14031;50.158;8.626;2023-02-01T05:42:40;7.10;99.90
16174;DHT22;14031;50.158;8.626;2023-02-01T05:45:08;7.20;99.90
16174;DHT22;14031;50.158;8.626;2023-02-01T05:47:35;7.10;99.90
16174;DHT22;14031;50.158;8.626;2023-02-01T05:50:05;7.20;99.90
16174;DHT22;14031;50.158;8.626;2023-02-01T05:52:32;7.20;99.90
16174;DHT22;14031;50.158;8.626;2023-02-01T05:54:58;7.20;99.90
16174;DHT22;14031;50.158;8.626;2023-02-01T05:57:25;7.10;99.90
16174;DHT22;14031;50.158;8.626;2023-02-01T05:59:52;7.20;99.90
16174;DHT22;14031;50.158;8.626;2023-02-01T06:02:19;7.20;99.90
16174;DHT22;14031;50.158;8.626;2023-02-01T06:04:47;7.20;99.90
16174;DHT22;14031;50.158;8.626;2023-02-01T06:07:15;7.30;99.90
16174;DHT22;14031;50.158;8.626;2023-02-01T06:09:42;7.20;99.90
16174;DHT22;14031;50.158;8.626;2023-02-01T06:12:09;7.20;99.90
16174;DHT22;14031;50.158;8.626;2023-02-01T06:14:36;7.30;99.90
16174;DHT22;14031;50.158;8.626;2023-02-01T06:17:03;7.20;99.90
16174;DHT22;14031;50.158;8.626;2023-02-01T06:19:31;7.10;99.90
16174;DHT22;14031;50.158;8.626;2023-02-01T06:21:57;7.00;99.90
16174;DHT22;14031;50.158;8.626;2023-02-01T06:24:25;7.00;99.90
16174;DHT22;14031;50.158;8.626;2023-02-01T06:26:52;7.10;99.90
16174;DHT22;14031;50.158;8.626;2023-02-01T06:29:19;7.00;99.90
16174;DHT22;14031;50.158;8.626;2023-02-01T06:31:46;7.00;99.90
16174;DHT22;14031;50.158;8.626;2023-02-01T06:34:12;6.90;99.90
16174;DHT22;14031;50.158;8.626;2023-02-01T06:36:39;6.90;99.90
16174;DHT22;14031;50.158;8.626;2023-02-01T06:39:06;6.80;99.90
16174;DHT22;14031;50.158;8.626;2023-02-01T06:41:34;6.90;99.90
16174;DHT22;14031;50.158;8.626;2023-02-01T06:44:01;6.90;99.90
16174;DHT22;14031;50.158;8.626;2023-02-01T06:46:28;6.90;99.90
16174;DHT22;14031;50.158;8.626;2023-02-01T06:48:54;6.90;99.90
16174;DHT22;14031;50.158;8.626;2023-02-01T06:51:23;6.90;99.90
16174;DHT22;14031;50.158;8.626;2023-02-01T06:53:50;6.80;99.90
16174;DHT22;14031;50.158;8.626;2023-02-01T06:56:18;6.80;99.90
16174;DHT22;14031;50.158;8.626;2023-02-01T06:58:46;6.90;99.90
16174;DHT22;14031;50.158;8.626;2023-02-01T07:01:14;6.90;99.90
16174;DHT22;14031;50.158;8.626;2023-02-01T07:03:41;6.80;99.90
16174;DHT22;14031;50.158;8.626;2023-02-01T07:06:08;6.90;99.90
16174;DHT22;14031;50.158;8.626;2023-02-01T07:08:36;6.90;99.90
16174;DHT22;14031;50.158;8.626;2023-02-01T07:11:04;6.70;99.90
16174;DHT22;14031;50.158;8.626;2023-02-01T07:13:31;6.80;99.90
16174;DHT22;14031;50.158;8.626;2023-02-01T07:16:00;6.80;99.90
16174;DHT22;14031;50.158;8.626;2023-02-01T07:18:28;6.70;99.90
16174;DHT22;14031;50.158;8.626;2023-02-01T07:20:55;6.80;99.90
16174;DHT22;14031;50.158;8.626;2023-02-01T07:23:22;6.80;99.90
16174;DHT22;14031;50.158;8.626;2023-02-01T07:25:53;6.70;99.90
16174;DHT22;14031;50.158;8.626;2023-02-01T07:28:20;6.80;99.90
16174;DHT22;14031;50.158;8.626;2023-02-01T07:30:46;6.80;99.90
16174;DHT22;14031;50.158;8.626;2023-02-01T07:33:18;6.70;99.90
16174;DHT22;14031;50.158;8.626;2023-02-01T07:35:45;6.80;99.90
16174;DHT22;14031;50.158;8.626;2023-02-01T07:38:12;6.80;99.90
16174;DHT22;14031;50.158;8.626;2023-02-01T07:40:39;6.70;99.90
16174;DHT22;14031;50.158;8.626;2023-02-01T07:43:06;6.70;99.90
16174;DHT22;14031;50.158;8.626;2023-02-01T07:45:33;6.70;99.90
16174;DHT22;14031;50.158;8.626;2023-02-01T07:48:00;6.80;99.90
16174;DHT22;14031;50.158;8.626;2023-02-01T07:50:29;6.80;99.90
16174;DHT22;14031;50.158;8.626;2023-02-01T07:52:58;6.80;99.90
16174;DHT22;14031;50.158;8.626;2023-02-01T07:55:25;6.80;99.90
16174;DHT22;14031;50.158;8.626;2023-02-01T07:57:52;6.80;99.90
16174;DHT22;14031;50.158;8.626;2023-02-01T08:00:19;6.70;99.90
16174;DHT22;14031;50.158;8.626;2023-02-01T08:03:04;6.80;99.90
16174;DHT22;14031;50.158;8.626;2023-02-01T08:05:32;6.80;99.90
16174;DHT22;14031;50.158;8.626;2023-02-01T08:07:59;6.80;99.90
16174;DHT22;14031;50.158;8.626;2023-02-01T08:10:26;6.90;99.90
16174;DHT22;14031;50.158;8.626;2023-02-01T08:12:58;6.80;99.90
16174;DHT22;14031;50.158;8.626;2023-02-01T08:15:25;6.90;99.90
16174;DHT22;14031;50.158;8.626;2023-02-01T08:17:52;6.90;99.90
16174;DHT22;14031;50.158;8.626;2023-02-01T08:20:20;6.90;99.90
16174;DHT22;14031;50.158;8.626;2023-02-01T08:22:49;6.90;99.90
16174;DHT22;14031;50.158;8.626;2023-02-01T08:25:16;7.00;99.90
16174;DHT22;14031;50.158;8.626;2023-02-01T08:27:43;7.00;99.90
16174;DHT22;14031;50.158;8.626;2023-02-01T08:30:11;7.00;99.90
16174;DHT22;14031;50.158;8.626;2023-02-01T08:32:38;7.10;99.90
16174;DHT22;14031;50.158;8.626;2023-02-01T08:35:05;7.10;99.90
16174;DHT22;14031;50.158;8.626;2023-02-01T08:37:32;7.20;99.90
16174;DHT22;14031;50.158;8.626;2023-02-01T08:40:00;7.20;99.90
16174;DHT22;14031;50.158;8.626;2023-02-01T08:42:27;7.30;99.90
16174;DHT22;14031;50.158;8.626;2023-02-01T08:45:11;7.30;99.90
16174;DHT22;14031;50.158;8.626;2023-02-01T08:47:38;7.40;99.90
16174;DHT22;14031;50.158;8.626;2023-02-01T08:50:05;7.40;99.90
16174;DHT22;14031;50.158;8.626;2023-02-01T08:52:32;7.50;99.90
16174;DHT22;14031;50.158;8.626;2023-02-01T08:55:00;7.50;99.90
16174;DHT22;14031;50.158;8.626;2023-02-01T08:57:27;7.60;99.90
16174;DHT22;14031;50.158;8.626;2023-02-01T08:59:54;7.40;99.90
16174;DHT22;14031;50.158;8.626;2023-02-01T09:02:21;7.50;99.90
16174;DHT22;14031;50.158;8.626;2023-02-01T09:04:47;7.60;99.90
16174;DHT22;14031;50.158;8.626;2023-02-01T09:07:14;7.60;99.90
16174;DHT22;14031;50.158;8.626;2023-02-01T09:09:42;7.60;99.90
16174;DHT22;14031;50.158;8.626;2023-02-01T09:12:11;7.60;99.90
16174;DHT22;14031;50.158;8.626;2023-02-01T09:14:38;7.70;99.90
16174;DHT22;14031;50.158;8.626;2023-02-01T09:17:04;7.60;99.90
16174;DHT22;14031;50.158;8.626;2023-02-01T09:19:32;7.70;99.90
16174;DHT22;14031;50.158;8.626;2023-02-01T09:21:59;7.60;99.90
16174;DHT22;14031;50.158;8.626;2023-02-01T09:24:26;7.80;99.90
16174;DHT22;14031;50.158;8.626;2023-02-01T09:26:53;7.70;99.90
16174;DHT22;14031;50.158;8.626;2023-02-01T09:29:21;7.70;99.90
16174;DHT22;14031;50.158;8.626;2023-02-01T09:31:48;7.70;99.90
16174;DHT22;14031;50.158;8.626;2023-02-01T09:34:15;7.80;99.90
16174;DHT22;14031;50.158;8.626;2023-02-01T09:36:42;7.80;99.90
16174;DHT22;14031;50.158;8.626;2023-02-01T09:39:08;7.60;99.90
16174;DHT22;14031;50.158;8.626;2023-02-01T09:41:46;7.70;99.90
16174;DHT22;14031;50.158;8.626;2023-02-01T09:44:36;7.60;99.90
16174;DHT22;14031;50.158;8.626;2023-02-01T09:47:11;7.70;99.90
16174;DHT22;14031;50.158;8.626;2023-02-01T09:49:45;7.70;99.90
16174;DHT22;14031;50.158;8.626;2023-02-01T09:52:18;7.80;99.90
16174;DHT22;14031;50.158;8.626;2023-02-01T09:54:50;7.70;99.90
16174;DHT22;14031;50.158;8.626;2023-02-01T09:57:25;7.80;99.90
16174;DHT22;14031;50.158;8.626;2023-02-01T09:59:57;7.90;99.90
16174;DHT22;14031;50.158;8.626;2023-02-01T10:02:28;7.90;99.90
16174;DHT22;14031;50.158;8.626;2023-02-01T10:04:57;7.90;99.90
16174;DHT22;14031;50.158;8.626;2023-02-01T10:07:30;8.00;99.90
16174;DHT22;14031;50.158;8.626;2023-02-01T10:10:03;8.10;99.90
16174;DHT22;14031;50.158;8.626;2023-02-01T10:12:55;8.10;99.90
16174;DHT22;14031;50.158;8.626;2023-02-01T10:15:30;7.90;99.90
16174;DHT22;14031;50.158;8.626;2023-02-01T10:18:11;8.00;99.90
16174;DHT22;14031;50.158;8.626;2023-02-01T10:20:52;7.90;99.90
16174;DHT22;14031;50.158;8.626;2023-02-01T10:23:38;8.00;99.90
16174;DHT22;14031;50.158;8.626;2023-02-01T10:26:15;8.00;99.90
16174;DHT22;14031;50.158;8.626;2023-02-01T10:28:45;8.10;99.90
16174;DHT22;14031;50.158;8.626;2023-02-01T10:31:16;8.20;99.90
16174;DHT22;14031;50.158;8.626;2023-02-01T10:33:45;8.30;99.90
16174;DHT22;14031;50.158;8.626;2023-02-01T10:36:16;8.30;99.90
16174;DHT22;14031;50.158;8.626;2023-02-01T10:38:45;8.30;99.90
16174;DHT22;14031;50.158;8.626;2023-02-01T10:41:15;8.30;99.90
16174;DHT22;14031;50.158;8.626;2023-02-01T10:43:43;8.40;99.90
16174;DHT22;14031;50.158;8.626;2023-02-01T10:46:11;8.50;99.90
16174;DHT22;14031;50.158;8.626;2023-02-01T10:48:39;8.50;99.90
16174;DHT22;14031;50.158;8.626;2023-02-01T10:51:12;8.60;99.90
16174;DHT22;14031;50.158;8.626;2023-02-01T10:53:44;8.40;99.90
16174;DHT22;14031;50.158;8.626;2023-02-01T10:56:14;8.40;99.90
16174;DHT22;14031;50.158;8.626;2023-02-01T10:58:47;8.50;99.90
16174;DHT22;14031;50.158;8.626;2023-02-01T11:01:17;8.40;99.90
16174;DHT22;14031;50.158;8.626;2023-02-01T11:03:52;8.40;99.90
16174;DHT22;14031;50.158;8.626;2023-02-01T11:06:27;8.40;99.90
16174;DHT22;14031;50.158;8.626;2023-02-01T11:08:56;8.40;99.90
16174;DHT22;14031;50.158;8.626;2023-02-01T11:11:24;8.40;99.90
16174;DHT22;14031;50.158;8.626;2023-02-01T11:13:53;8.50;99.90
16174;DHT22;14031;50.158;8.626;2023-02-01T11:16:21;8.50;99.90
16174;DHT22;14031;50.158;8.626;2023-02-01T11:18:53;8.60;99.90
16174;DHT22;14031;50.158;8.626;2023-02-01T11:21:21;8.60;99.90
16174;DHT22;14031;50.158;8.626;2023-02-01T11:23:48;8.50;99.90
16174;DHT22;14031;50.158;8.626;2023-02-01T11:26:21;8.60;99.90
16174;DHT22;14031;50.158;8.626;2023-02-01T11:28:53;8.50;99.90
16174;DHT22;14031;50.158;8.626;2023-02-01T11:31:21;8.50;99.90
16174;DHT22;14031;50.158;8.626;2023-02-01T11:33:52;8.50;99.90
16174;DHT22;14031;50.158;8.626;2023-02-01T11:36:23;8.40;99.90
16174;DHT22;14031;50.158;8.626;2023-02-01T11:38:54;8.50;99.90
16174;DHT22;14031;50.158;8.626;2023-02-01T11:41:23;8.60;99.90
16174;DHT22;14031;50.158;8.626;2023-02-01T11:43:53;8.70;99.90
16174;DHT22;14031;50.158;8.626;2023-02-01T11:46:23;8.60;99.90
16174;DHT22;14031;50.158;8.626;2023-02-01T11:48:53;8.70;99.90
16174;DHT22;14031;50.158;8.626;2023-02-01T11:51:36;8.70;99.90
16174;DHT22;14031;50.158;8.626;2023-02-01T11:54:18;8.80;99.90
16174;DHT22;14031;50.158;8.626;2023-02-01T11:56:57;8.80;99.90
16174;DHT22;14031;50.158;8.626;2023-02-01T11:59:37;8.90;99.90
16174;DHT22;14031;50.158;8.626;2023-02-01T12:05:24;8.90;99.90
16174;DHT22;14031;50.158;8.626;2023-02-01T12:11:11;8.90;99.90
16174;DHT22;14031;50.158;8.626;2023-02-01T12:13:51;9.00;99.90
16174;DHT22;14031;50.158;8.626;2023-02-01T12:16:29;9.10;99.90
16174;DHT22;14031;50.158;8.626;2023-02-01T12:19:15;9.10;99.90
16174;DHT22;14031;50.158;8.626;2023-02-01T12:21:56;9.00;99.90
16174;DHT22;14031;50.158;8.626;2023-02-01T12:24:42;9.00;99.90
16174;DHT22;14031;50.158;8.626;2023-02-01T12:27:32;9.00;99.90
16174;DHT22;14031;50.158;8.626;2023-02-01T12:30:24;9.00;99.90
16174;DHT22;14031;50.158;8.626;2023-02-01T12:33:02;9.00;99.90
16174;DHT22;14031;50.158;8.626;2023-02-01T12:35:42;9.00;99.90
16174;DHT22;14031;50.158;8.626;2023-02-01T12:38:21;9.10;99.90
16174;DHT22;14031;50.158;8.626;2023-02-01T12:40:59;9.20;99.90
16174;DHT22;14031;50.158;8.626;2023-02-01T12:43:37;9.20;99.90
16174;DHT22;14031;50.158;8.626;2023-02-01T12:46:08;9.20;99.90
16174;DHT22;14031;50.158;8.626;2023-02-01T12:48:40;9.10;99.90
16174;DHT22;14031;50.158;8.626;2023-02-01T12:51:12;9.10;99.90
16174;DHT22;14031;50.158;8.626;2023-02-01T12:53:51;9.00;99.90
16174;DHT22;14031;50.158;8.626;2023-02-01T12:56:23;9.00;99.90
16174;DHT22;14031;50.158;8.626;2023-02-01T12:58:53;9.00;99.90
16174;DHT22;14031;50.158;8.626;2023-02-01T13:01:25;9.00;99.90
16174;DHT22;14031;50.158;8.626;2023-02-01T13:03:59;9.00;99.90
16174;DHT22;14031;50.158;8.626;2023-02-01T13:06:34;9.00;99.90
16174;DHT22;14031;50.158;8.626;2023-02-01T13:09:09;9.00;99.90
16174;DHT22;14031;50.158;8.626;2023-02-01T13:11:41;9.00;99.90
16174;DHT22;14031;50.158;8.626;2023-02-01T13:14:19;9.00;99.90
16174;DHT22;14031;50.158;8.626;2023-02-01T13:16:52;9.00;99.90
16174;DHT22;14031;50.158;8.626;2023-02-01T13:19:24;9.10;99.90
16174;DHT22;14031;50.158;8.626;2023-02-01T13:21:56;9.10;99.90
16174;DHT22;14031;50.158;8.626;2023-02-01T13:24:36;9.10;99.90
16174;DHT22;14031;50.158;8.626;2023-02-01T13:27:03;9.00;99.90
16174;DHT22;14031;50.158;8.626;2023-02-01T13:29:31;9.10;99.90
16174;DHT22;14031;50.158;8.626;2023-02-01T13:32:11;9.10;99.90
16174;DHT22;14031;50.158;8.626;2023-02-01T13:35:04;9.20;99.90
16174;DHT22;14031;50.158;8.626;2023-02-01T13:38:01;9.20;99.90
16174;DHT22;14031;50.158;8.626;2023-02-01T13:40:37;9.10;99.90
16174;DHT22;14031;50.158;8.626;2023-02-01T13:43:10;9.20;99.90
16174;DHT22;14031;50.158;8.626;2023-02-01T13:45:43;9.30;99.90
16174;DHT22;14031;50.158;8.626;2023-02-01T13:48:19;9.20;99.90
16174;DHT22;14031;50.158;8.626;2023-02-01T13:50:51;9.30;99.90
16174;DHT22;14031;50.158;8.626;2023-02-01T13:53:25;9.30;99.90
16174;DHT22;14031;50.158;8.626;2023-02-01T13:55:59;9.40;99.90
16174;DHT22;14031;50.158;8.626;2023-02-01T13:58:33;9.40;99.90
16174;DHT22;14031;50.158;8.626;2023-02-01T14:01:32;9.40;99.90
16174;DHT22;14031;50.158;8.626;2023-02-01T14:04:02;9.50;99.90
16174;DHT22;14031;50.158;8.626;2023-02-01T14:06:42;9.40;99.90
16174;DHT22;14031;50.158;8.626;2023-02-01T14:09:30;9.40;99.90
16174;DHT22;14031;50.158;8.626;2023-02-01T14:15:24;9.60;99.90
16174;DHT22;14031;50.158;8.626;2023-02-01T14:17:52;9.50;99.90
16174;DHT22;14031;50.158;8.626;2023-02-01T14:20:48;9.50;99.90
16174;DHT22;14031;50.158;8.626;2023-02-01T14:23:22;9.70;99.90
16174;DHT22;14031;50.158;8.626;2023-02-01T14:26:08;9.80;99.90
16174;DHT22;14031;50.158;8.626;2023-02-01T14:31:47;9.90;99.90
16174;DHT22;14031;50.158;8.626;2023-02-01T14:34:29;10.00;99.90
16174;DHT22;14031;50.158;8.626;2023-02-01T14:36:59;10.10;99.90
16174;DHT22;14031;50.158;8.626;2023-02-01T14:39:37;10.20;99.90
16174;DHT22;14031;50.158;8.626;2023-02-01T14:42:19;10.20;99.90
16174;DHT22;14031;50.158;8.626;2023-02-01T14:44:48;10.20;99.90
16174;DHT22;14031;50.158;8.626;2023-02-01T14:47:33;10.20;99.90
16174;DHT22;14031;50.158;8.626;2023-02-01T14:50:18;10.30;99.90
16174;DHT22;14031;50.158;8.626;2023-02-01T14:52:51;10.10;99.90
16174;DHT22;14031;50.158;8.626;2023-02-01T14:55:31;10.10;99.90
16174;DHT22;14031;50.158;8.626;2023-02-01T14:58:02;10.00;99.90
16174;DHT22;14031;50.158;8.626;2023-02-01T15:00:32;10.10;99.90
16174;DHT22;14031;50.158;8.626;2023-02-01T15:03:23;9.90;99.90
16174;DHT22;14031;50.158;8.626;2023-02-01T15:05:55;9.90;99.90
16174;DHT22;14031;50.158;8.626;2023-02-01T15:08:26;9.60;99.90
16174;DHT22;14031;50.158;8.626;2023-02-01T15:10:54;9.50;99.90
16174;DHT22;14031;50.158;8.626;2023-02-01T15:13:23;9.40;99.90
16174;DHT22;14031;50.158;8.626;2023-02-01T15:16:03;9.30;99.90
16174;DHT22;14031;50.158;8.626;2023-02-01T15:18:31;9.30;99.90
16174;DHT22;14031;50.158;8.626;2023-02-01T15:20:59;9.30;99.90
16174;DHT22;14031;50.158;8.626;2023-02-01T15:23:27;9.20;99.90
16174;DHT22;14031;50.158;8.626;2023-02-01T15:25:54;9.10;99.90
16174;DHT22;14031;50.158;8.626;2023-02-01T15:28:22;9.00;99.90
16174;DHT22;14031;50.158;8.626;2023-02-01T15:30:55;8.90;99.90
16174;DHT22;14031;50.158;8.626;2023-02-01T15:33:24;8.80;99.90
16174;DHT22;14031;50.158;8.626;2023-02-01T15:35:52;8.80;99.90
16174;DHT22;14031;50.158;8.626;2023-02-01T15:38:36;8.80;99.90
16174;DHT22;14031;50.158;8.626;2023-02-01T15:41:08;8.80;99.90
16174;DHT22;14031;50.158;8.626;2023-02-01T15:43:38;8.80;99.90
16174;DHT22;14031;50.158;8.626;2023-02-01T15:46:12;8.80;99.90
16174;DHT22;14031;50.158;8.626;2023-02-01T15:48:44;8.80;99.90
16174;DHT22;14031;50.158;8.626;2023-02-01T15:51:14;8.70;99.90
16174;DHT22;14031;50.158;8.626;2023-02-01T15:53:49;8.70;99.90
16174;DHT22;14031;50.158;8.626;2023-02-01T15:56:22;8.70;99.90
16174;DHT22;14031;50.158;8.626;2023-02-01T15:58:53;8.60;99.90
16174;DHT22;14031;50.158;8.626;2023-02-01T16:01:21;8.70;99.90
16174;DHT22;14031;50.158;8.626;2023-02-01T16:03:54;8.50;99.90
16174;DHT22;14031;50.158;8.626;2023-02-01T16:06:30;8.60;99.90
16174;DHT22;14031;50.158;8.626;2023-02-01T16:09:10;8.60;99.90
16174;DHT22;14031;50.158;8.626;2023-02-01T16:11:46;8.50;99.90
16174;DHT22;14031;50.158;8.626;2023-02-01T16:14:13;8.40;99.90
16174;DHT22;14031;50.158;8.626;2023-02-01T16:16:40;8.40;99.90
16174;DHT22;14031;50.158;8.626;2023-02-01T16:19:08;8.40;99.90
16174;DHT22;14031;50.158;8.626;2023-02-01T16:21:35;8.30;99.90
16174;DHT22;14031;50.158;8.626;2023-02-01T16:24:01;8.40;99.90
16174;DHT22;14031;50.158;8.626;2023-02-01T16:26:29;8.40;99.90
16174;DHT22;14031;50.158;8.626;2023-02-01T16:28:56;8.40;99.90